バクー の空港の天気 - METARとTAF

ヘイダル・アリエフ国際空港(バクー) ( UBBB / BAK ) - アゼルバイジャン バクー
飛行場実況気象(Metar)
観測時間11/22 16:30 AZT (11/22 12:30 UTC)
風向・風速北北西 13m/s
視程10km以上
天気現象
全天の4割程度の雲 雲底高度 610m
全天の8割程度の雲 雲底高度 3050m
気温11℃
湿度76%
気圧1008hPa
METARUBBB 221230Z 34025KT 9999 SCT020 BKN100 11/07 Q1008 R88/D NOSIG
過去の天気等 Google飛行場航空写真 Wunderground天気予報

過去48時間のMETAR

飛行場予報(TAF)
発表時間: 11/22 15:04 AZT (11/22 11:04 UTC)
予報対象時間: 22日16時 AZT ~ 23日16時 AZT
風向・風速北西 12m/s 瞬間風速 17m/s
視程10km以上
全天の8割程度の雲 雲底高度 370m
全天の8割程度の雲 雲底高度 910m
22日16時 AZT ~ 22日22時 AZT に一時的に
風向・風速北 15m/s 瞬間風速 21m/s
全天の8割程度の雲 雲底高度 240m
全天を覆う雲 雲底高度 610m
22日22時 AZT ~ 23日1時 AZT に一時的に
天気現象弱いしゅう雨
全天の4割程度の雲 雲底高度 300m
全天の8割程度の積乱雲 雲底高度 610m
全天を覆う雲 雲底高度 610m
TAF UBBB 221104Z 2212/2312 32024G34KT 9999 BKN012 BKN030 TX13/2212Z TN10/2302Z
TEMPO 2212/2218 35030G40KT BKN008 OVC020
TEMPO 2218/2221 -SHRA SCT010 BKN020CB OVC020